Time;durP1;ratioP1;P1;durP2;ratioP2;P2;SDS_P1;SDS_P2;PMS_P1;PMS_P2;Temp;Humidity;BMP_temperature;BMP_pressure;BME280_temperature;BME280_humidity;BME280_pressure;Samples;Min_cycle;Max_cycle;Signal;HPM_P1;HPM_P2
2022/08/28 00:01:45;;;;;;;8.38;2.58;;;;;;;19.08;59.63;100081.91;5094935;28;20264;-79
2022/08/28 00:04:11;;;;;;;9.25;2.72;;;;;;;18.94;59.59;100094.97;5094079;28;20035;-80
2022/08/28 00:06:36;;;;;;;14.02;2.33;;;;;;;18.97;60.18;100095.16;5094795;28;20028;-80
2022/08/28 00:09:03;;;;;;;9.88;2.45;;;;;;;18.93;59.72;100093.34;5087418;28;20053;-80
2022/08/28 00:11:28;;;;;;;7.18;1.75;;;;;;;18.88;60.14;100088.75;5074271;28;20401;-80
2022/08/28 00:13:54;;;;;;;9.70;3.28;;;;;;;18.87;59.83;100100.94;5074137;28;20031;-80
2022/08/28 00:16:19;;;;;;;5.88;1.65;;;;;;;18.82;60.00;100098.28;5085442;28;20109;-79
2022/08/28 00:18:45;;;;;;;10.05;2.70;;;;;;;18.87;59.96;100090.72;5086156;28;20035;-80
2022/08/28 00:21:10;;;;;;;4.82;1.88;;;;;;;18.86;59.62;100099.28;5094619;28;20036;-80
2022/08/28 00:23:36;;;;;;;5.70;1.80;;;;;;;18.82;60.21;100095.53;5094693;28;20449;-78
2022/08/28 00:26:01;;;;;;;11.50;2.08;;;;;;;18.83;59.59;100095.22;5094160;28;20580;-80
2022/08/28 00:28:28;;;;;;;11.75;2.70;;;;;;;18.64;60.47;100092.63;5093901;28;20449;-80
2022/08/28 00:30:57;;;;;;;8.27;2.42;;;;;;;18.50;60.50;100099.00;5092165;28;20099;-80
2022/08/28 00:33:31;;;;;;;10.70;2.80;;;;;;;18.51;60.80;100100.63;5091842;28;20434;-80
2022/08/28 00:35:57;;;;;;;8.00;2.67;;;;;;;18.71;60.59;100103.25;5094254;28;20043;-81
2022/08/28 00:38:25;;;;;;;7.57;2.33;;;;;;;18.67;60.19;100103.06;5093647;28;20032;-80
2022/08/28 00:40:54;;;;;;;11.10;3.58;;;;;;;18.61;60.03;100104.31;5094041;28;20031;-80
2022/08/28 00:43:42;;;;;;;9.30;2.28;;;;;;;18.65;60.40;100100.59;5093936;28;20036;-79
2022/08/28 00:46:15;;;;;;;11.55;2.65;;;;;;;18.67;60.81;100097.53;5093944;28;20040;-80
2022/08/28 00:48:41;;;;;;;13.30;3.73;;;;;;;18.59;60.81;100101.03;5092995;28;20054;-79
2022/08/28 00:53:54;;;;;;;12.45;3.85;;;;;;;18.70;60.15;100099.66;5093760;28;20039;-79
2022/08/28 00:56:20;;;;;;;7.60;2.10;;;;;;;18.51;60.54;100102.59;5093701;28;20497;-79
2022/08/28 00:58:50;;;;;;;9.45;2.47;;;;;;;18.43;60.89;100101.34;5092980;28;20169;-80
2022/08/28 01:01:16;;;;;;;7.82;2.78;;;;;;;18.49;60.75;100100.13;5093719;28;20525;-80
2022/08/28 01:03:42;;;;;;;9.23;3.28;;;;;;;18.46;61.36;100102.69;5093097;28;20043;-79
2022/08/28 01:06:08;;;;;;;8.30;3.00;;;;;;;18.38;61.16;100104.25;5093356;28;20024;-80
2022/08/28 01:08:36;;;;;;;7.20;2.70;;;;;;;18.22;61.76;100101.00;5089930;28;20067;-79
2022/08/28 01:11:03;;;;;;;15.13;3.88;;;;;;;18.34;61.12;100100.47;5073075;28;20645;-79
2022/08/28 01:13:29;;;;;;;8.38;3.42;;;;;;;18.36;61.46;100106.50;5072941;28;20149;-80
2022/08/28 01:15:56;;;;;;;6.80;2.83;;;;;;;18.42;60.98;100102.50;5088893;28;20027;-79
2022/08/28 01:18:24;;;;;;;8.05;2.97;;;;;;;18.34;60.83;100100.47;5091505;28;20491;-79
2022/08/28 01:21:16;;;;;;;17.85;4.30;;;;;;;18.40;60.84;100100.06;5093573;28;20395;-79
2022/08/28 01:23:55;;;;;;;10.80;3.33;;;;;;;18.25;61.38;100100.38;5093471;28;20374;-80
2022/08/28 01:26:21;;;;;;;7.55;3.20;;;;;;;18.33;61.42;100109.88;5093408;28;20031;-79
2022/08/28 01:28:46;;;;;;;13.18;3.13;;;;;;;18.33;61.05;100093.34;5070132;28;20032;-79
2022/08/28 01:31:14;;;;;;;18.27;4.25;;;;;;;18.15;61.10;100099.44;5054984;28;20135;-80
2022/08/28 01:33:41;;;;;;;13.60;2.63;;;;;;;18.12;62.07;100093.72;5072597;28;20052;-80
2022/08/28 01:36:09;;;;;;;9.40;2.88;;;;;;;18.16;61.54;100108.53;5072791;28;20032;-79
2022/08/28 01:38:36;;;;;;;13.27;4.07;;;;;;;18.06;61.69;100115.09;5072048;28;20473;-80
2022/08/28 01:41:01;;;;;;;9.93;3.88;;;;;;;18.18;62.10;100106.31;5070000;28;20024;-80
2022/08/28 01:43:27;;;;;;;10.73;3.08;;;;;;;18.22;61.15;100118.38;5092829;28;20112;-80
2022/08/28 01:45:56;;;;;;;12.75;4.13;;;;;;;18.19;61.56;100122.56;5085509;28;20030;-80
2022/08/28 01:48:23;;;;;;;6.82;2.53;;;;;;;18.08;61.85;100116.41;5092136;28;20051;-80
2022/08/28 01:50:49;;;;;;;13.48;4.38;;;;;;;17.89;62.65;100123.97;5072392;28;20055;-79
2022/08/28 01:53:17;;;;;;;8.93;3.33;;;;;;;18.09;61.73;100123.56;5072441;28;20024;-80
2022/08/28 01:55:43;;;;;;;9.32;3.40;;;;;;;17.95;62.42;100123.56;5071994;28;20673;-80
2022/08/28 01:58:10;;;;;;;12.55;3.92;;;;;;;18.06;62.24;100128.88;5072263;28;20060;-79
2022/08/28 02:00:36;;;;;;;8.85;3.58;;;;;;;17.99;61.79;100128.47;5091531;28;20056;-79
2022/08/28 02:03:01;;;;;;;14.43;4.18;;;;;;;17.77;62.48;100122.53;5091829;28;20049;-80
2022/08/28 02:05:29;;;;;;;9.30;3.38;;;;;;;17.68;63.33;100124.34;5092161;28;20024;-78
2022/08/28 02:07:56;;;;;;;9.95;3.42;;;;;;;17.78;63.17;100131.59;5092445;28;20036;-80
2022/08/28 02:10:24;;;;;;;9.93;3.85;;;;;;;17.84;62.63;100125.69;5092452;28;20038;-79
2022/08/28 02:12:51;;;;;;;15.20;4.60;;;;;;;17.85;63.06;100126.53;5092461;28;20492;-80
2022/08/28 02:15:17;;;;;;;11.15;4.15;;;;;;;17.77;62.97;100122.53;5090113;28;20066;-80
2022/08/28 02:17:42;;;;;;;7.28;3.47;;;;;;;17.74;63.67;100123.97;5090718;28;20032;-79
2022/08/28 02:20:08;;;;;;;11.67;3.30;;;;;;;17.82;62.78;100133.47;5091389;28;20036;-79
2022/08/28 02:22:33;;;;;;;15.00;4.22;;;;;;;17.72;62.88;100131.72;5091732;28;20843;-80
2022/08/28 02:24:59;;;;;;;11.40;3.72;;;;;;;17.45;64.32;100138.00;5091627;28;20477;-79
2022/08/28 02:27:24;;;;;;;10.52;4.40;;;;;;;17.40;63.99;100141.66;5091723;28;20028;-79
2022/08/28 02:29:49;;;;;;;7.20;2.38;;;;;;;17.42;64.71;100139.41;5091249;28;20040;-80
2022/08/28 02:32:16;;;;;;;9.30;2.65;;;;;;;17.30;65.17;100137.16;5091549;28;20387;-79
2022/08/28 02:34:42;;;;;;;9.40;3.40;;;;;;;17.45;64.28;100143.53;5073009;28;20034;-79
2022/08/28 02:37:08;;;;;;;9.00;3.63;;;;;;;17.31;64.43;100138.75;5091226;28;20408;-78
2022/08/28 02:39:34;;;;;;;12.63;3.55;;;;;;;17.38;64.30;100139.22;5083576;28;20645;-80
2022/08/28 02:41:59;;;;;;;10.93;2.75;;;;;;;17.34;64.32;100135.41;5091423;28;20020;-80
2022/08/28 02:44:24;;;;;;;9.20;3.40;;;;;;;17.18;64.86;100140.38;5091426;28;20072;-79
2022/08/28 02:46:51;;;;;;;11.85;4.38;;;;;;;17.24;64.92;100146.59;5091391;28;20253;-79
2022/08/28 02:49:16;;;;;;;17.38;3.88;;;;;;;17.17;64.71;100146.19;5082121;28;20037;-79
2022/08/28 02:51:42;;;;;;;11.73;3.22;;;;;;;17.39;64.63;100153.78;5070717;28;20024;-79
2022/08/28 02:54:07;;;;;;;8.23;3.07;;;;;;;17.42;64.66;100160.63;5070663;28;20028;-79
2022/08/28 02:56:33;;;;;;;9.03;3.70;;;;;;;17.39;64.18;100151.84;5071338;28;20719;-79
2022/08/28 02:58:58;;;;;;;15.32;5.15;;;;;;;17.39;64.02;100149.09;5077367;28;20253;-79
2022/08/28 03:01:23;;;;;;;9.40;3.73;;;;;;;17.44;64.42;100152.88;5091202;28;20080;-79
2022/08/28 03:03:49;;;;;;;10.67;4.37;;;;;;;17.20;65.12;100153.84;5090848;28;20276;-79
2022/08/28 03:06:14;;;;;;;13.70;4.20;;;;;;;17.25;64.83;100151.00;5073441;28;20348;-79
2022/08/28 03:08:41;;;;;;;21.58;3.45;;;;;;;17.18;65.01;100150.56;5091305;28;20032;-79
2022/08/28 03:11:07;;;;;;;22.10;3.67;;;;;;;17.17;65.01;100152.50;5091695;28;20031;-79
2022/08/28 03:13:32;;;;;;;5.80;2.67;;;;;;;17.18;65.21;100151.38;5091252;28;20045;-80
2022/08/28 03:15:58;;;;;;;20.45;3.72;;;;;;;17.19;65.36;100152.22;5102420;28;20110;-79
2022/08/28 03:18:25;;;;;;;9.68;4.65;;;;;;;17.18;64.61;100150.56;5113891;28;20197;-79
2022/08/28 03:20:51;;;;;;;13.52;4.32;;;;;;;17.12;65.05;100147.91;5095909;28;20032;-80
2022/08/28 03:23:25;;;;;;;11.45;4.07;;;;;;;17.16;65.20;100148.13;5095435;28;20028;-79
2022/08/28 03:26:00;;;;;;;11.30;2.95;;;;;;;17.14;65.23;100151.19;5094916;28;20511;-79
2022/08/28 03:28:28;;;;;;;7.85;3.35;;;;;;;17.24;64.97;100138.34;5092858;28;20035;-79
2022/08/28 03:30:53;;;;;;;11.32;4.38;;;;;;;17.19;64.86;100141.19;5074688;28;20437;-78
2022/08/28 03:33:19;;;;;;;11.15;3.63;;;;;;;17.26;64.75;100147.13;5074241;28;20024;-79
2022/08/28 03:35:45;;;;;;;8.93;3.22;;;;;;;17.27;64.96;100146.00;5074517;28;20035;-78
2022/08/28 03:38:10;;;;;;;8.63;3.42;;;;;;;17.13;65.28;100145.94;5074570;28;20070;-79
2022/08/28 03:40:44;;;;;;;12.48;3.72;;;;;;;16.96;66.15;100146.47;5082257;28;20032;-80
2022/08/28 03:43:12;;;;;;;9.27;2.70;;;;;;;17.00;66.36;100145.56;5074778;28;20032;-80
2022/08/28 03:45:38;;;;;;;10.95;3.55;;;;;;;16.86;66.15;100151.00;5080753;28;20109;-79
2022/08/28 03:48:03;;;;;;;24.00;4.70;;;;;;;16.92;66.20;100144.28;5085846;28;20087;-79
2022/08/28 03:50:29;;;;;;;7.95;3.42;;;;;;;17.04;65.62;100145.78;5093236;28;20118;-79
2022/08/28 03:52:54;;;;;;;14.88;3.72;;;;;;;17.00;65.84;100144.75;5094766;28;20028;-79
2022/08/28 03:55:21;;;;;;;15.05;4.35;;;;;;;16.57;67.01;100143.72;5094364;28;20173;-80
2022/08/28 03:57:46;;;;;;;14.23;3.90;;;;;;;16.65;66.71;100156.81;5095123;28;20064;-79
2022/08/28 04:00:13;;;;;;;27.17;5.32;;;;;;;16.82;66.81;100155.47;5094912;28;20063;-79
2022/08/28 04:02:40;;;;;;;14.52;3.45;;;;;;;16.95;65.82;100148.41;5076688;28;20539;-80
2022/08/28 04:05:07;;;;;;;18.13;4.03;;;;;;;16.98;66.29;100147.81;5094536;28;20103;-79
2022/08/28 04:07:32;;;;;;;13.02;4.03;;;;;;;17.02;65.75;100154.34;5094881;28;20059;-78
2022/08/28 04:09:57;;;;;;;12.30;4.72;;;;;;;16.98;65.71;100152.50;5094233;28;20036;-79
2022/08/28 04:12:24;;;;;;;12.68;4.25;;;;;;;16.87;66.55;100157.31;5094642;28;20097;-80
2022/08/28 04:14:49;;;;;;;15.45;4.88;;;;;;;16.92;65.80;100160.81;5094619;28;20388;-80
2022/08/28 04:17:15;;;;;;;13.13;3.70;;;;;;;16.63;66.62;100158.22;5094788;28;20028;-80
2022/08/28 04:19:40;;;;;;;12.85;5.10;;;;;;;16.57;67.09;100155.53;5093760;28;20032;-79
2022/08/28 04:22:07;;;;;;;14.60;3.77;;;;;;;16.45;67.37;100163.41;5093985;28;20028;-80
2022/08/28 04:24:32;;;;;;;11.13;3.35;;;;;;;16.29;67.96;100165.53;5094543;28;20252;-79
2022/08/28 04:26:57;;;;;;;8.82;3.80;;;;;;;16.53;67.70;100168.25;5094522;28;20035;-79
2022/08/28 04:29:23;;;;;;;10.68;3.63;;;;;;;16.67;66.97;100154.59;5084193;28;20465;-79
2022/08/28 04:31:49;;;;;;;10.27;3.40;;;;;;;16.76;66.23;100156.69;5073835;28;20131;-79
2022/08/28 04:34:14;;;;;;;9.68;2.90;;;;;;;16.60;67.07;100159.63;5055705;28;20529;-79
2022/08/28 04:36:40;;;;;;;15.43;4.45;;;;;;;16.68;66.53;100161.72;5074325;28;20377;-79
2022/08/28 04:39:07;;;;;;;11.40;3.65;;;;;;;16.68;66.90;100167.22;5073739;28;20476;-80
2022/08/28 04:41:33;;;;;;;9.75;3.33;;;;;;;16.77;66.76;100174.81;5073707;28;20028;-79
2022/08/28 04:43:58;;;;;;;12.27;3.15;;;;;;;16.79;66.23;100167.91;5055812;28;20031;-79
2022/08/28 04:46:24;;;;;;;11.65;2.75;;;;;;;16.93;66.45;100169.91;5085723;28;20103;-79
2022/08/28 04:48:49;;;;;;;11.95;4.28;;;;;;;16.64;66.66;100171.69;5083430;28;20031;-80
2022/08/28 04:51:15;;;;;;;13.07;3.75;;;;;;;16.54;67.27;100166.31;5093712;28;20168;-80
2022/08/28 04:53:41;;;;;;;17.83;5.03;;;;;;;16.31;67.56;100175.13;5075717;28;20035;-80
2022/08/28 04:56:10;;;;;;;22.60;6.13;;;;;;;16.42;67.51;100175.81;5093754;28;20028;-78
2022/08/28 04:58:35;;;;;;;14.45;3.75;;;;;;;16.31;67.93;100174.31;5093349;28;20081;-80
2022/08/28 05:01:14;;;;;;;12.57;3.78;;;;;;;16.31;68.14;100179.81;5093215;28;20031;-80
2022/08/28 05:03:40;;;;;;;14.68;4.10;;;;;;;16.40;68.20;100185.47;5093141;28;20028;-79
2022/08/28 05:06:06;;;;;;;7.93;3.38;;;;;;;16.63;67.42;100194.81;5093430;28;20042;-80
2022/08/28 05:08:31;;;;;;;6.75;2.80;;;;;;;16.52;67.72;100185.03;5090148;28;20039;-79
2022/08/28 05:10:58;;;;;;;14.52;4.18;;;;;;;16.62;67.11;100190.41;5073290;28;20029;-79
2022/08/28 05:13:24;;;;;;;14.52;3.78;;;;;;;16.59;67.48;100196.53;5071261;28;20032;-81
2022/08/28 05:15:51;;;;;;;9.20;3.80;;;;;;;16.42;67.35;100195.06;5078750;28;20439;-80
2022/08/28 05:18:20;;;;;;;7.45;3.00;;;;;;;16.51;67.45;100202.69;5092969;28;20036;-79
2022/08/28 05:20:47;;;;;;;12.20;3.30;;;;;;;16.49;67.44;100200.22;5090891;28;20123;-79
2022/08/28 05:23:14;;;;;;;10.23;3.58;;;;;;;16.37;67.79;100203.41;5077798;28;20024;-79
2022/08/28 05:25:42;;;;;;;11.85;4.10;;;;;;;16.45;67.65;100207.44;5084480;28;20492;-78
2022/08/28 05:28:09;;;;;;;10.80;3.30;;;;;;;16.60;67.24;100209.16;5091988;28;20046;-79
2022/08/28 05:30:36;;;;;;;12.52;3.38;;;;;;;16.62;66.92;100209.69;5071627;28;20493;-80
2022/08/28 05:33:05;;;;;;;9.75;3.67;;;;;;;16.83;67.17;100211.34;5072535;28;20397;-79
2022/08/28 05:35:37;;;;;;;8.85;3.45;;;;;;;16.88;66.75;100212.09;5072032;28;20039;-79
2022/08/28 05:38:02;;;;;;;19.85;4.18;;;;;;;16.74;66.53;100224.97;5072936;28;20119;-79
2022/08/28 05:40:27;;;;;;;13.80;4.03;;;;;;;16.73;67.31;100221.41;5083556;28;20503;-80
2022/08/28 05:42:53;;;;;;;12.73;3.75;;;;;;;16.39;67.87;100217.69;5093291;28;20032;-79
2022/08/28 05:45:19;;;;;;;5.68;3.03;;;;;;;16.63;66.92;100227.84;5095879;28;20031;-80
2022/08/28 05:47:45;;;;;;;7.32;3.38;;;;;;;16.44;67.58;100216.78;5077482;28;20042;-79
2022/08/28 05:50:13;;;;;;;22.75;5.00;;;;;;;16.62;67.22;100223.44;5088395;28;20036;-78
2022/08/28 05:52:40;;;;;;;11.82;3.95;;;;;;;16.87;66.76;100217.91;5092388;28;20081;-80
2022/08/28 05:55:07;;;;;;;13.85;4.68;;;;;;;16.74;67.05;100231.28;5091237;28;20081;-80
2022/08/28 05:57:32;;;;;;;14.40;3.88;;;;;;;16.80;66.91;100234.81;5090625;28;20040;-80
2022/08/28 05:59:58;;;;;;;9.30;3.55;;;;;;;16.69;66.83;100229.44;5092246;28;20105;-79
2022/08/28 06:02:23;;;;;;;9.00;2.90;;;;;;;16.61;67.08;100230.09;5092293;28;20075;-80
2022/08/28 06:04:49;;;;;;;8.23;3.03;;;;;;;16.82;67.23;100234.50;5092176;28;20253;-79
2022/08/28 06:07:14;;;;;;;16.52;3.53;;;;;;;16.84;67.13;100233.06;5092532;28;20031;-79
2022/08/28 06:09:40;;;;;;;18.48;4.07;;;;;;;16.75;66.88;100243.13;5079979;28;20513;-80
2022/08/28 06:12:06;;;;;;;19.25;3.67;;;;;;;16.92;66.92;100235.16;5072186;28;20032;-80
2022/08/28 06:14:32;;;;;;;7.78;2.78;;;;;;;17.04;66.73;100239.44;5054054;28;20063;-78
2022/08/28 06:16:58;;;;;;;13.73;3.45;;;;;;;17.16;66.15;100244.53;5088393;28;20085;-79
2022/08/28 06:19:26;;;;;;;10.57;2.97;;;;;;;16.93;66.43;100249.75;5071868;28;20637;-78
2022/08/28 06:21:56;;;;;;;8.98;3.40;;;;;;;16.96;66.51;100234.59;5071829;28;20480;-78
2022/08/28 06:24:22;;;;;;;9.32;3.75;;;;;;;16.88;66.92;100236.06;5054264;28;20032;-78
2022/08/28 06:26:47;;;;;;;7.10;2.67;;;;;;;17.21;66.43;100249.94;5071671;28;20519;-79
2022/08/28 06:29:16;;;;;;;8.20;3.67;;;;;;;16.88;66.58;100242.38;5071718;28;20033;-79
2022/08/28 06:31:41;;;;;;;10.77;3.65;;;;;;;16.96;67.15;100248.34;5054209;28;20044;-79
2022/08/28 06:34:08;;;;;;;14.02;4.07;;;;;;;17.14;66.64;100250.34;5071302;28;20021;-79
2022/08/28 06:36:37;;;;;;;17.40;3.15;;;;;;;17.18;65.98;100250.56;5053475;28;20047;-80
2022/08/28 06:39:05;;;;;;;20.85;4.03;;;;;;;17.17;65.98;100253.63;5071389;28;20055;-78
2022/08/28 06:41:31;;;;;;;7.75;3.10;;;;;;;17.01;66.73;100256.53;5091489;28;20078;-80
2022/08/28 06:43:57;;;;;;;7.90;2.67;;;;;;;17.20;65.84;100258.53;5091770;28;20043;-80
2022/08/28 06:46:23;;;;;;;9.85;2.47;;;;;;;17.41;65.48;100260.97;5091810;28;20024;-80
2022/08/28 06:48:49;;;;;;;10.30;3.10;;;;;;;17.21;65.86;100260.16;5083960;28;20032;-80
2022/08/28 06:51:14;;;;;;;7.45;3.05;;;;;;;17.45;65.89;100256.50;5091626;28;20388;-80
2022/08/28 06:53:42;;;;;;;12.50;3.15;;;;;;;17.17;65.76;100259.94;5091964;28;20028;-80
2022/08/28 06:56:12;;;;;;;16.55;3.08;;;;;;;17.04;65.79;100261.47;5075793;28;20035;-79
2022/08/28 06:58:41;;;;;;;9.23;3.25;;;;;;;16.91;65.84;100269.34;5070974;28;20074;-79
2022/08/28 07:01:11;;;;;;;12.70;2.30;;;;;;;17.22;65.00;100270.88;5071460;28;20052;-80
2022/08/28 07:03:38;;;;;;;6.93;2.50;;;;;;;17.02;64.95;100274.72;5070882;28;20050;-79
2022/08/28 07:06:05;;;;;;;9.55;2.97;;;;;;;17.02;65.78;100269.22;5070608;28;20036;-80
2022/08/28 07:08:32;;;;;;;7.95;1.95;;;;;;;17.32;64.79;100267.16;5072474;28;20032;-80
2022/08/28 07:10:58;;;;;;;12.38;2.40;;;;;;;17.22;64.71;100262.63;5087312;28;20486;-80
2022/08/28 07:13:25;;;;;;;10.90;2.28;;;;;;;17.08;66.45;100269.94;5054697;28;20090;-79
2022/08/28 07:15:50;;;;;;;11.77;2.85;;;;;;;17.26;65.26;100269.19;5075849;28;20085;-79
2022/08/28 07:18:16;;;;;;;7.65;2.80;;;;;;;17.49;64.33;100268.56;5080702;28;20035;-80
2022/08/28 07:20:43;;;;;;;9.38;2.97;;;;;;;17.65;64.53;100265.56;5079459;28;20477;-80
2022/08/28 07:23:08;;;;;;;8.60;2.58;;;;;;;17.44;63.54;100263.94;5071157;28;20370;-78
2022/08/28 07:25:39;;;;;;;12.32;3.47;;;;;;;17.73;63.50;100256.63;5070693;28;20035;-78
2022/08/28 07:28:04;;;;;;;13.98;2.58;;;;;;;17.58;64.02;100264.00;5069823;28;20036;-78
2022/08/28 07:30:29;;;;;;;8.63;2.83;;;;;;;17.72;63.89;100263.22;5069799;28;20049;-79
2022/08/28 07:32:54;;;;;;;7.60;2.20;;;;;;;17.64;64.30;100269.44;5069257;28;20036;-79
2022/08/28 07:35:20;;;;;;;10.40;2.90;;;;;;;17.93;63.57;100268.41;5069229;28;20283;-79
2022/08/28 07:37:45;;;;;;;8.10;3.15;;;;;;;17.76;63.13;100269.78;5068941;28;20280;-78
2022/08/28 07:40:11;;;;;;;7.67;2.90;;;;;;;17.87;62.57;100267.69;5079127;28;20537;-78
2022/08/28 07:45:21;;;;;;;20.05;2.70;;;;;;;17.72;62.56;100272.31;5089048;28;20038;-80
2022/08/28 07:47:46;;;;;;;6.97;2.85;;;;;;;18.00;62.90;100274.34;5083079;28;20424;-80
2022/08/28 07:50:14;;;;;;;7.90;2.30;;;;;;;17.84;62.28;100274.59;5083640;28;20032;-80
2022/08/28 07:52:39;;;;;;;7.63;2.20;;;;;;;18.11;62.13;100279.69;5089481;28;20028;-80
2022/08/28 07:55:05;;;;;;;8.43;2.28;;;;;;;17.84;62.04;100282.06;5089006;28;20028;-79
2022/08/28 07:57:30;;;;;;;13.02;2.47;;;;;;;17.81;61.50;100289.00;5089494;28;20750;-79
2022/08/28 07:59:57;;;;;;;5.32;2.28;;;;;;;17.72;61.72;100291.63;5077083;28;20390;-79
2022/08/28 08:02:22;;;;;;;8.38;2.40;;;;;;;17.93;62.01;100284.94;5073479;28;20028;-80
2022/08/28 08:04:47;;;;;;;11.85;2.78;;;;;;;17.97;61.40;100294.25;5062870;28;20048;-82
2022/08/28 08:07:13;;;;;;;11.80;3.65;;;;;;;18.09;61.75;100294.59;5086035;28;20043;-81
2022/08/28 08:09:40;;;;;;;7.95;2.25;;;;;;;18.15;60.82;100294.50;5065216;28;20040;-82
2022/08/28 08:12:07;;;;;;;7.57;2.67;;;;;;;17.92;61.12;100295.16;5085169;28;20466;-82
2022/08/28 08:14:33;;;;;;;6.55;2.03;;;;;;;17.98;60.30;100304.16;5072598;28;20052;-81
2022/08/28 08:17:01;;;;;;;9.05;3.03;;;;;;;18.19;60.69;100298.31;5081066;28;20043;-81
2022/08/28 08:19:26;;;;;;;11.10;2.72;;;;;;;18.09;60.87;100305.63;5074462;28;20040;-81
2022/08/28 08:21:52;;;;;;;9.30;2.67;;;;;;;18.00;60.47;100296.41;5093197;28;20035;-81
2022/08/28 08:24:19;;;;;;;6.82;2.67;;;;;;;18.15;60.25;100298.09;5092985;28;20040;-81
2022/08/28 08:26:48;;;;;;;9.38;3.28;;;;;;;18.33;59.92;100303.06;5093423;28;20040;-80
2022/08/28 08:29:14;;;;;;;6.22;2.75;;;;;;;18.39;58.84;100296.31;5088109;28;20044;-81
2022/08/28 08:31:40;;;;;;;6.20;1.73;;;;;;;18.22;59.54;100303.25;5093726;28;20055;-81
2022/08/28 08:34:06;;;;;;;7.45;2.03;;;;;;;18.31;59.06;100300.59;5090958;28;20487;-80
2022/08/28 08:36:33;;;;;;;9.40;2.10;;;;;;;18.33;58.62;100297.53;5092878;28;20074;-80
2022/08/28 08:38:59;;;;;;;15.57;3.60;;;;;;;18.58;59.84;100301.75;5084345;28;20032;-80
2022/08/28 08:41:31;;;;;;;5.35;1.92;;;;;;;18.77;57.19;100298.88;5071785;28;20040;-81
2022/08/28 08:44:06;;;;;;;9.65;2.78;;;;;;;18.96;57.51;100303.47;5072264;28;20151;-80
2022/08/28 08:46:41;;;;;;;5.65;1.80;;;;;;;19.27;57.71;100303.94;5084144;28;20497;-80
2022/08/28 08:49:14;;;;;;;6.88;2.25;;;;;;;19.18;56.23;100298.34;5069938;28;20108;-81
2022/08/28 08:51:43;;;;;;;5.63;1.73;;;;;;;18.99;55.84;100305.63;5091828;28;20024;-80
2022/08/28 08:54:14;;;;;;;13.10;2.72;;;;;;;18.93;56.11;100306.84;5091072;28;20036;-80
2022/08/28 08:56:42;;;;;;;5.13;1.92;;;;;;;19.04;55.83;100304.69;5091331;28;20028;-80
2022/08/28 08:59:17;;;;;;;10.50;2.65;;;;;;;19.14;55.71;100306.44;5082242;28;20028;-81
2022/08/28 09:01:49;;;;;;;6.95;2.42;;;;;;;19.37;55.53;100306.47;5071983;28;20140;-80
2022/08/28 09:04:45;;;;;;;8.10;2.50;;;;;;;19.36;55.21;100307.63;5069181;28;20490;-79
2022/08/28 09:07:28;;;;;;;11.38;2.90;;;;;;;19.48;54.79;100302.38;5070374;28;20036;-80
2022/08/28 09:09:56;;;;;;;5.77;1.70;;;;;;;19.53;54.27;100308.88;5073036;28;20041;-80
2022/08/28 09:12:24;;;;;;;13.32;4.57;;;;;;;19.69;54.13;100301.03;5071290;28;20029;-80
2022/08/28 09:15:08;;;;;;;13.38;3.45;;;;;;;19.68;54.48;100313.25;5070459;28;20037;-80
2022/08/28 09:17:36;;;;;;;;;;;;;;;19.89;53.74;100310.78;5076938;28;20100;-80
2022/08/28 09:20:07;;;;;;;13.25;2.58;;;;;;;20.04;53.50;100303.22;5081795;28;20353;-80
2022/08/28 09:22:33;;;;;;;6.20;1.70;;;;;;;19.97;52.76;100309.22;5091048;28;20585;-80
2022/08/28 09:24:58;;;;;;;9.50;3.33;;;;;;;19.85;52.47;100309.81;5090444;28;20078;-80
2022/08/28 09:27:26;;;;;;;5.53;2.22;;;;;;;19.98;53.14;100307.25;5091131;28;20027;-80
2022/08/28 09:30:01;;;;;;;7.28;2.65;;;;;;;20.00;52.90;100311.34;5075948;28;20044;-80
2022/08/28 09:32:29;;;;;;;7.43;1.88;;;;;;;20.06;52.56;100298.19;5070177;28;20052;-78
2022/08/28 09:34:59;;;;;;;7.72;3.00;;;;;;;20.21;53.78;100302.56;5068688;28;20052;-80
2022/08/28 09:37:28;;;;;;;8.90;3.20;;;;;;;20.47;52.54;100301.03;5070187;28;20059;-80
2022/08/28 09:40:14;;;;;;;9.75;3.50;;;;;;;20.45;51.96;100301.38;5072059;28;20072;-81
2022/08/28 09:45:38;;;;;;;6.35;2.65;;;;;;;20.12;51.49;100312.75;5077107;28;20047;-80
2022/08/28 09:48:18;;;;;;;10.90;2.95;;;;;;;20.16;51.84;100309.03;5077572;28;20389;-79
2022/08/28 09:50:57;;;;;;;12.68;2.85;;;;;;;20.26;51.70;100310.72;5074921;28;20173;-80
2022/08/28 09:53:22;;;;;;;6.20;2.67;;;;;;;20.36;51.92;100311.59;5083940;28;20032;-81
2022/08/28 09:56:01;;;;;;;6.00;2.17;;;;;;;20.45;51.70;100303.31;5071126;28;20041;-80
2022/08/28 09:58:53;;;;;;;6.43;2.78;;;;;;;20.53;50.78;100305.31;5070009;28;20047;-81
2022/08/28 10:01:40;;;;;;;9.20;2.42;;;;;;;20.27;51.93;100314.31;5070341;28;20048;-80
2022/08/28 10:04:13;;;;;;;8.95;2.72;;;;;;;20.20;51.86;100308.41;5051194;28;20055;-79
2022/08/28 10:06:40;;;;;;;8.82;2.17;;;;;;;20.38;52.07;100315.66;5069690;28;20048;-80
2022/08/28 10:09:27;;;;;;;13.30;2.35;;;;;;;20.34;51.76;100314.66;5072786;28;20036;-79
2022/08/28 10:12:22;;;;;;;7.22;1.92;;;;;;;20.37;53.10;100316.81;5070040;28;20044;-80
2022/08/28 10:14:47;;;;;;;7.22;3.25;;;;;;;20.28;52.82;100311.22;5070123;28;20043;-81
2022/08/28 10:17:18;;;;;;;11.40;3.00;;;;;;;20.14;52.96;100311.31;5089835;28;20576;-78
2022/08/28 10:19:58;;;;;;;6.82;1.98;;;;;;;20.16;52.65;100310.97;5075376;28;20032;-80
2022/08/28 10:22:48;;;;;;;8.05;2.70;;;;;;;20.34;51.82;100314.66;5071346;28;20063;-81
2022/08/28 10:25:25;;;;;;;6.80;2.50;;;;;;;20.47;51.89;100306.56;5077076;28;20062;-80
2022/08/28 10:27:58;;;;;;;13.48;2.45;;;;;;;20.64;51.91;100317.72;5085743;28;20032;-79
2022/08/28 10:30:24;;;;;;;8.75;2.80;;;;;;;20.54;51.13;100306.94;5073734;28;20044;-80
2022/08/28 10:32:56;;;;;;;11.23;2.40;;;;;;;20.71;50.89;100303.41;5068919;28;20066;-81
2022/08/28 10:35:47;;;;;;;14.93;2.28;;;;;;;20.93;50.92;100311.97;5068959;28;20040;-80
2022/08/28 10:38:16;;;;;;;9.65;2.75;;;;;;;20.92;50.02;100308.38;5087948;28;20039;-81
2022/08/28 10:40:53;;;;;;;6.97;1.83;;;;;;;21.05;49.21;100303.03;5087061;28;20523;-79
2022/08/28 10:43:32;;;;;;;7.38;2.40;;;;;;;21.16;49.22;100306.31;5087463;28;20031;-81
2022/08/28 10:46:11;;;;;;;5.43;2.15;;;;;;;21.11;48.97;100308.09;5075273;28;20527;-81
2022/08/28 10:48:53;;;;;;;6.88;1.90;;;;;;;21.19;48.28;100305.69;5078090;28;20080;-81
2022/08/28 10:51:34;;;;;;;10.45;2.35;;;;;;;21.44;49.52;100315.13;5075105;28;20389;-81
2022/08/28 10:54:24;;;;;;;5.20;2.05;;;;;;;21.17;48.35;100306.00;5081775;28;20108;-81
2022/08/28 10:57:22;;;;;;;6.57;1.73;;;;;;;21.54;48.48;100311.22;5072315;28;20611;-80
2022/08/28 10:59:50;;;;;;;5.85;2.22;;;;;;;21.49;48.05;100305.84;5026572;28;20102;-80
2022/08/28 11:02:21;;;;;;;6.93;1.50;;;;;;;21.39;47.43;100306.19;5069109;28;20066;-81
2022/08/28 11:04:47;;;;;;;7.47;2.30;;;;;;;21.41;47.21;100298.34;5069743;28;20047;-81
2022/08/28 11:07:24;;;;;;;9.18;1.35;;;;;;;21.31;47.58;100297.53;5069882;28;20036;-82
2022/08/28 11:09:50;;;;;;;5.22;1.65;;;;;;;21.52;47.11;100298.84;5069763;28;20028;-80
2022/08/28 11:12:15;;;;;;;9.95;2.33;;;;;;;21.45;46.78;100294.59;5069879;28;20385;-81
2022/08/28 11:14:44;;;;;;;5.77;1.83;;;;;;;21.78;47.05;100290.47;5052196;28;20120;-79
2022/08/28 11:17:26;;;;;;;6.38;1.95;;;;;;;21.84;46.95;100299.50;5102378;28;20035;-80
2022/08/28 11:20:00;;;;;;;8.90;1.90;;;;;;;21.91;46.49;100298.97;5071408;28;20042;-81
2022/08/28 11:22:33;;;;;;;7.60;2.17;;;;;;;21.94;46.47;100301.13;5069117;28;20047;-80
2022/08/28 11:25:25;;;;;;;10.10;1.98;;;;;;;21.97;46.06;100297.66;5069826;28;20035;-80
2022/08/28 11:28:09;;;;;;;4.47;1.80;;;;;;;22.00;46.61;100297.03;5076452;28;20074;-80
2022/08/28 11:30:35;;;;;;;;;;;;;;;21.99;45.39;100300.94;5083553;28;20050;-80
2022/08/28 11:33:03;;;;;;;3.85;1.33;;;;;;;22.06;46.04;100305.16;5087685;28;19912;-79
2022/08/28 11:35:28;;;;;;;5.93;1.42;;;;;;;22.04;45.07;100303.53;5087849;28;20028;-79
2022/08/28 11:37:55;;;;;;;6.27;1.90;;;;;;;22.14;45.78;100302.38;5082338;28;20042;-79